Time;durP1;ratioP1;P1;durP2;ratioP2;P2;SDS_P1;SDS_P2;PMS_P1;PMS_P2;Temp;Humidity;BMP_temperature;BMP_pressure;BME280_temperature;BME280_humidity;BME280_pressure;Samples;Min_cycle;Max_cycle;Signal;HPM_P1;HPM_P2
2022/04/17 00:00:53;;;;;;;9.40;5.93;;;4.10;99.90;;;;;;5060731;28;20482;-49
2022/04/17 00:03:24;;;;;;;9.48;6.70;;;4.00;99.90;;;;;;5060648;28;20509;-49
2022/04/17 00:05:51;;;;;;;7.90;6.18;;;4.00;99.90;;;;;;5060542;28;20202;-51
2022/04/17 00:08:18;;;;;;;13.00;6.95;;;4.00;99.90;;;;;;5060732;28;20225;-52
2022/04/17 00:10:49;;;;;;;10.50;6.68;;;4.10;99.90;;;;;;5061081;28;20436;-51
2022/04/17 00:13:16;;;;;;;13.82;6.95;;;4.10;99.90;;;;;;5060841;28;20300;-49
2022/04/17 00:15:44;;;;;;;7.65;5.28;;;4.10;99.90;;;;;;5061349;28;20199;-50
2022/04/17 00:18:11;;;;;;;8.57;6.05;;;4.20;99.90;;;;;;5060892;28;20229;-52
2022/04/17 00:20:39;;;;;;;9.80;5.38;;;4.10;99.90;;;;;;5044768;28;20250;-53
2022/04/17 00:23:06;;;;;;;7.47;5.00;;;4.00;99.90;;;;;;5048588;28;20209;-50
2022/04/17 00:25:33;;;;;;;9.20;6.40;;;4.00;99.90;;;;;;5061272;28;20202;-51
2022/04/17 00:28:01;;;;;;;10.13;5.35;;;4.00;99.90;;;;;;5061163;28;20475;-49
2022/04/17 00:30:28;;;;;;;9.20;5.70;;;3.90;99.90;;;;;;5060476;28;20240;-52
2022/04/17 00:32:56;;;;;;;11.80;6.28;;;4.00;99.90;;;;;;5060707;28;20253;-51
2022/04/17 00:35:23;;;;;;;12.25;7.20;;;3.90;99.90;;;;;;5059795;28;20199;-50
2022/04/17 00:37:50;;;;;;;11.00;6.70;;;4.00;99.90;;;;;;5060006;28;20448;-49
2022/04/17 00:40:17;;;;;;;8.98;6.10;;;3.80;99.90;;;;;;5059690;28;20198;-51
2022/04/17 00:42:46;;;;;;;13.57;6.70;;;3.80;99.90;;;;;;5059939;28;20198;-52
2022/04/17 00:45:14;;;;;;;12.80;8.10;;;3.80;99.90;;;;;;5059262;28;20202;-49
2022/04/17 00:47:41;;;;;;;10.27;5.68;;;3.90;99.90;;;;;;5059771;28;20201;-52
2022/04/17 00:50:09;;;;;;;8.02;6.25;;;3.90;99.90;;;;;;5059732;28;20208;-50
2022/04/17 00:52:37;;;;;;;6.35;5.20;;;3.90;99.90;;;;;;5059714;28;20202;-51
2022/04/17 00:55:05;;;;;;;10.27;6.57;;;3.60;99.90;;;;;;5059391;28;20564;-49
2022/04/17 00:57:33;;;;;;;11.15;6.50;;;3.50;99.90;;;;;;5059426;28;20220;-53
2022/04/17 01:00:03;;;;;;;6.55;5.15;;;3.40;99.90;;;;;;5059637;28;20200;-50
2022/04/17 01:02:30;;;;;;;10.75;6.60;;;3.50;99.90;;;;;;5059147;28;20197;-48
2022/04/17 01:04:57;;;;;;;7.10;5.07;;;3.40;99.90;;;;;;5059668;28;20196;-51
2022/04/17 01:07:26;;;;;;;9.55;7.40;;;3.50;99.90;;;;;;5059202;28;20237;-53
2022/04/17 01:09:53;;;;;;;7.40;5.95;;;3.40;99.90;;;;;;5059688;28;20201;-52
2022/04/17 01:12:21;;;;;;;5.40;4.82;;;3.50;99.90;;;;;;5064536;28;20231;-51
2022/04/17 01:14:48;;;;;;;8.52;6.40;;;3.40;99.90;;;;;;5067755;28;20227;-50
2022/04/17 01:17:16;;;;;;;11.75;6.53;;;3.40;99.90;;;;;;5059920;28;20554;-49
2022/04/17 01:19:43;;;;;;;8.02;5.00;;;3.30;99.90;;;;;;5059751;28;20540;-49
2022/04/17 01:22:12;;;;;;;6.05;4.85;;;3.40;99.90;;;;;;5059251;28;20542;-51
2022/04/17 01:27:26;;;;;;;7.28;4.90;;;3.20;99.90;;;;;;5059419;28;20468;-49
2022/04/17 01:29:53;;;;;;;7.85;5.15;;;3.30;99.90;;;;;;5059739;28;20194;-51
2022/04/17 01:32:22;;;;;;;7.28;4.30;;;3.30;99.90;;;;;;5059526;28;20201;-52
2022/04/17 01:34:49;;;;;;;11.70;5.93;;;3.20;99.90;;;;;;5059399;28;20264;-53
2022/04/17 01:37:20;;;;;;;7.38;5.50;;;3.20;99.90;;;;;;5058868;28;20197;-54
2022/04/17 01:39:47;;;;;;;12.40;5.85;;;3.20;99.90;;;;;;5059414;28;20566;-50
2022/04/17 01:42:16;;;;;;;5.88;5.28;;;3.20;99.90;;;;;;5059115;28;20436;-49
2022/04/17 01:44:44;;;;;;;8.40;5.78;;;3.20;99.90;;;;;;5059240;28;20202;-50
2022/04/17 01:47:11;;;;;;;10.80;5.88;;;3.10;99.90;;;;;;5059471;28;20208;-50
2022/04/17 01:49:39;;;;;;;6.85;4.85;;;3.00;99.90;;;;;;5059482;28;20240;-49
2022/04/17 01:52:08;;;;;;;6.65;4.72;;;3.10;99.90;;;;;;5058460;28;20450;-52
2022/04/17 01:54:35;;;;;;;5.38;4.80;;;3.10;99.90;;;;;;5059021;28;20228;-50
2022/04/17 01:57:02;;;;;;;6.43;4.30;;;3.00;99.90;;;;;;5059685;28;20209;-52
2022/04/17 01:59:30;;;;;;;6.63;5.57;;;3.10;99.90;;;;;;5060499;28;20218;-55
2022/04/17 02:01:58;;;;;;;8.23;4.47;;;3.00;99.90;;;;;;5060903;28;20202;-51
2022/04/17 02:04:27;;;;;;;6.05;5.35;;;3.00;99.90;;;;;;5060341;28;20202;-52
2022/04/17 02:06:54;;;;;;;5.53;3.40;;;3.00;99.90;;;;;;5060665;28;20574;-51
2022/04/17 02:09:22;;;;;;;7.00;4.50;;;3.10;99.90;;;;;;5060744;28;20218;-52
2022/04/17 02:11:49;;;;;;;8.00;4.20;;;3.20;99.90;;;;;;5060092;28;20201;-50
2022/04/17 02:14:19;;;;;;;5.10;4.45;;;3.20;99.90;;;;;;5062115;28;20224;-54
2022/04/17 02:16:46;;;;;;;7.60;4.63;;;3.10;99.90;;;;;;5063472;28;20427;-55
2022/04/17 02:19:14;;;;;;;12.88;4.80;;;2.80;99.90;;;;;;5063656;28;20299;-52
2022/04/17 02:21:41;;;;;;;7.35;4.00;;;2.80;99.90;;;;;;5064094;28;20235;-49
2022/04/17 02:24:12;;;;;;;3.97;3.67;;;3.00;99.90;;;;;;5063094;28;20196;-55
2022/04/17 02:26:39;;;;;;;5.75;4.57;;;2.90;99.90;;;;;;5062982;28;20205;-52
2022/04/17 02:29:09;;;;;;;4.72;3.85;;;2.80;99.90;;;;;;5062390;28;20219;-52
2022/04/17 02:31:37;;;;;;;6.68;4.18;;;2.80;99.90;;;;;;5062048;28;20205;-50
2022/04/17 02:34:05;;;;;;;9.90;5.20;;;2.80;99.90;;;;;;5062212;28;20216;-52
2022/04/17 02:36:36;;;;;;;7.50;4.53;;;2.70;99.90;;;;;;5062211;28;20196;-49
2022/04/17 02:39:04;;;;;;;11.10;5.10;;;2.70;99.90;;;;;;5062516;28;20229;-51
2022/04/17 02:41:32;;;;;;;5.57;4.38;;;2.70;99.90;;;;;;5062013;28;20541;-50
2022/04/17 02:43:59;;;;;;;8.13;4.78;;;2.70;99.90;;;;;;5062227;28;20205;-50
2022/04/17 02:49:13;;;;;;;7.72;4.35;;;2.60;99.90;;;;;;5062409;28;20220;-52
2022/04/17 02:51:40;;;;;;;5.22;4.65;;;2.60;99.90;;;;;;5061809;28;20204;-54
2022/04/17 02:54:08;;;;;;;5.30;4.38;;;2.60;99.90;;;;;;5062077;28;20274;-51
2022/04/17 02:56:35;;;;;;;5.13;4.45;;;2.50;99.90;;;;;;5062102;28;20209;-51
2022/04/17 02:59:02;;;;;;;9.10;5.50;;;2.50;99.90;;;;;;5062219;28;20434;-50
2022/04/17 03:07:01;;;;;;;8.70;4.57;;;2.50;99.90;;;;;;5061574;28;20254;-50
2022/04/17 03:09:31;;;;;;;6.07;5.05;;;2.50;99.90;;;;;;5062169;28;20258;-50
2022/04/17 03:11:59;;;;;;;6.72;5.20;;;2.40;99.90;;;;;;5061749;28;20246;-51
2022/04/17 03:14:27;;;;;;;6.75;6.00;;;2.40;99.90;;;;;;5061861;28;20258;-51
2022/04/17 03:16:54;;;;;;;7.07;5.97;;;2.30;99.90;;;;;;5062273;28;20211;-49
2022/04/17 03:19:21;;;;;;;6.82;4.55;;;2.40;99.90;;;;;;5061962;28;20216;-49
2022/04/17 03:21:48;;;;;;;7.82;5.05;;;2.30;99.90;;;;;;5061518;28;20243;-53
2022/04/17 03:24:18;;;;;;;13.15;5.78;;;2.30;99.90;;;;;;5061052;28;20238;-49
2022/04/17 03:26:46;;;;;;;9.15;5.57;;;2.30;99.90;;;;;;5061174;28;20402;-49
2022/04/17 03:29:13;;;;;;;7.60;5.53;;;2.40;99.90;;;;;;5060932;28;20605;-50
2022/04/17 03:31:40;;;;;;;5.22;4.53;;;2.20;99.90;;;;;;5061346;28;20197;-52
2022/04/17 03:34:08;;;;;;;16.13;6.50;;;2.20;99.90;;;;;;5060871;28;20255;-53
2022/04/17 03:36:39;;;;;;;9.68;5.75;;;2.30;99.90;;;;;;5061291;28;20200;-52
2022/04/17 03:39:07;;;;;;;13.73;6.20;;;2.30;99.90;;;;;;5061161;28;20292;-49
2022/04/17 03:41:35;;;;;;;10.70;5.70;;;2.20;99.90;;;;;;5060964;28;20339;-50
2022/04/17 03:44:03;;;;;;;8.93;6.57;;;2.20;99.90;;;;;;5060684;28;20245;-50
2022/04/17 03:46:33;;;;;;;9.45;6.07;;;2.20;99.90;;;;;;5060917;28;20200;-48
2022/04/17 03:49:01;;;;;;;12.10;6.13;;;2.30;99.90;;;;;;5060993;28;20424;-50
2022/04/17 03:51:28;;;;;;;13.60;7.65;;;2.30;99.90;;;;;;5060901;28;20200;-49
2022/04/17 03:53:55;;;;;;;7.93;5.22;;;2.20;99.90;;;;;;5060433;28;20224;-51
2022/04/17 03:56:23;;;;;;;8.65;6.63;;;2.20;99.90;;;;;;5061067;28;20197;-51
2022/04/17 03:58:50;;;;;;;11.57;7.88;;;2.20;99.90;;;;;;5065625;28;20271;-51
2022/04/17 04:01:18;;;;;;;7.97;5.78;;;2.20;99.90;;;;;;5070758;28;20196;-47
2022/04/17 04:03:47;;;;;;;6.93;6.22;;;2.20;99.90;;;;;;5061610;28;20231;-49
2022/04/17 04:06:14;;;;;;;9.57;7.22;;;2.20;99.90;;;;;;5061486;28;20207;-49
2022/04/17 04:08:41;;;;;;;7.85;6.03;;;2.20;99.90;;;;;;5061330;28;20227;-51
2022/04/17 04:11:08;;;;;;;6.28;5.38;;;2.20;99.90;;;;;;5061384;28;20199;-50
2022/04/17 04:13:36;;;;;;;9.55;7.10;;;2.30;99.90;;;;;;5061161;28;20274;-51
2022/04/17 04:16:04;;;;;;;8.70;6.28;;;2.30;99.90;;;;;;5060665;28;20241;-49
2022/04/17 04:18:31;;;;;;;13.35;7.55;;;2.40;99.90;;;;;;5059926;28;20292;-48
2022/04/17 04:20:58;;;;;;;10.40;7.15;;;2.40;99.90;;;;;;5060208;28;20195;-52
2022/04/17 04:23:26;;;;;;;12.70;7.40;;;2.60;99.90;;;;;;5060243;28;20515;-49
2022/04/17 04:25:53;;;;;;;11.30;8.57;;;2.60;99.90;;;;;;5059684;28;20291;-49
2022/04/17 04:28:39;;;;;;;7.70;6.65;;;2.60;99.90;;;;;;5060308;28;20232;-49
2022/04/17 04:31:11;;;;;;;8.20;6.25;;;2.70;99.90;;;;;;5059952;28;20196;-50
2022/04/17 04:33:41;;;;;;;12.60;6.95;;;2.70;99.90;;;;;;5060093;28;20312;-51
2022/04/17 04:36:12;;;;;;;11.38;7.50;;;2.60;99.90;;;;;;5059411;28;20469;-52
2022/04/17 04:38:43;;;;;;;9.65;6.85;;;2.60;99.90;;;;;;5060057;28;20220;-51
2022/04/17 04:41:10;;;;;;;9.52;6.93;;;2.70;99.90;;;;;;5059916;28;20282;-49
2022/04/17 04:43:38;;;;;;;9.15;5.90;;;2.70;99.90;;;;;;5060037;28;20203;-50
2022/04/17 04:46:08;;;;;;;9.18;6.90;;;2.70;99.90;;;;;;5059851;28;20197;-49
2022/04/17 04:51:25;;;;;;;6.80;6.10;;;3.00;99.90;;;;;;5060211;28;20205;-50
2022/04/17 04:53:56;;;;;;;9.35;6.22;;;3.20;99.90;;;;;;5059406;28;20256;-48
2022/04/17 04:56:24;;;;;;;9.32;6.70;;;3.50;99.90;;;;;;5060043;28;20402;-52
2022/04/17 04:58:52;;;;;;;10.55;7.10;;;4.00;99.90;;;;;;5059211;28;20221;-52
2022/04/17 05:01:19;;;;;;;7.72;5.80;;;4.40;99.90;;;;;;5058847;28;20251;-52
2022/04/17 05:03:47;;;;;;;7.15;5.40;;;4.80;99.90;;;;;;5059156;28;20206;-52
2022/04/17 05:06:15;;;;;;;8.20;5.57;;;4.90;99.90;;;;;;5059384;28;20214;-49
2022/04/17 05:08:42;;;;;;;8.57;6.70;;;4.70;99.90;;;;;;5059026;28;20218;-52
2022/04/17 05:11:09;;;;;;;7.90;6.82;;;4.70;99.90;;;;;;5059271;28;20213;-49
2022/04/17 05:13:38;;;;;;;7.90;5.70;;;4.70;99.90;;;;;;5058846;28;20199;-50
2022/04/17 05:16:06;;;;;;;9.68;5.50;;;5.10;99.90;;;;;;5059130;28;20306;-50
2022/04/17 05:18:33;;;;;;;5.80;5.07;;;5.20;99.90;;;;;;5059010;28;20279;-49
2022/04/17 05:21:01;;;;;;;8.10;5.65;;;5.20;99.90;;;;;;5044535;28;20507;-49
2022/04/17 05:23:31;;;;;;;6.65;5.35;;;5.20;99.90;;;;;;5038905;28;20241;-49
2022/04/17 05:26:00;;;;;;;7.53;5.13;;;5.10;99.90;;;;;;5039445;28;20226;-48
2022/04/17 05:28:30;;;;;;;6.97;5.15;;;5.00;99.90;;;;;;5038958;28;20230;-50
2022/04/17 05:30:58;;;;;;;6.00;5.15;;;5.10;99.90;;;;;;5039725;28;20274;-53
2022/04/17 05:33:26;;;;;;;7.80;6.25;;;5.10;99.90;;;;;;5038819;28;20506;-48
2022/04/17 05:35:53;;;;;;;10.88;5.47;;;5.20;99.90;;;;;;5039335;28;20224;-49
2022/04/17 05:38:22;;;;;;;14.93;6.30;;;5.50;99.90;;;;;;5039984;28;20430;-49
2022/04/17 05:40:52;;;;;;;7.47;5.75;;;5.70;99.90;;;;;;5039159;28;20235;-50
2022/04/17 05:43:21;;;;;;;5.15;3.72;;;5.80;99.90;;;;;;5038948;28;20208;-49
2022/04/17 05:45:48;;;;;;;7.43;4.60;;;5.90;99.90;;;;;;5039059;28;20219;-50
2022/04/17 05:48:16;;;;;;;7.90;4.60;;;5.80;99.90;;;;;;5040458;28;20280;-54
2022/04/17 05:50:43;;;;;;;5.70;4.55;;;6.10;99.90;;;;;;5043719;28;20332;-52
2022/04/17 05:53:11;;;;;;;6.85;4.72;;;6.30;99.90;;;;;;5043599;28;20245;-51
2022/04/17 05:55:40;;;;;;;5.90;4.65;;;6.50;99.90;;;;;;5042736;28;20220;-48
2022/04/17 05:58:07;;;;;;;7.05;4.30;;;6.70;99.90;;;;;;5043061;28;20223;-50
2022/04/17 06:00:36;;;;;;;5.30;3.95;;;6.90;99.90;;;;;;5042821;28;20197;-49
2022/04/17 06:03:05;;;;;;;5.55;3.80;;;7.30;99.90;;;;;;5043332;28;20495;-51
2022/04/17 06:05:32;;;;;;;5.63;4.25;;;7.70;99.90;;;;;;5042723;28;20207;-54
2022/04/17 06:08:00;;;;;;;5.35;3.25;;;8.00;99.90;;;;;;5043245;28;20228;-51
2022/04/17 06:10:27;;;;;;;4.13;3.45;;;7.50;99.90;;;;;;5042813;28;20266;-50
2022/04/17 06:12:54;;;;;;;7.47;4.47;;;7.70;99.90;;;;;;5042289;28;20594;-51
2022/04/17 06:15:21;;;;;;;8.32;4.20;;;7.90;99.90;;;;;;5042621;28;20223;-50
2022/04/17 06:17:48;;;;;;;6.30;4.40;;;8.30;99.90;;;;;;5042543;28;20216;-53
2022/04/17 06:20:19;;;;;;;4.50;3.75;;;8.90;99.90;;;;;;5042446;28;20235;-52
2022/04/17 06:22:46;;;;;;;4.55;3.40;;;9.50;99.90;;;;;;5041814;28;20196;-53
2022/04/17 06:25:14;;;;;;;5.93;3.00;;;9.60;99.90;;;;;;5045471;28;20206;-54
2022/04/17 06:27:41;;;;;;;3.83;2.70;;;9.50;99.90;;;;;;5050772;28;20202;-53
2022/04/17 06:30:20;;;;;;;5.60;2.95;;;9.40;99.90;;;;;;5045488;28;20202;-48
2022/04/17 06:32:48;;;;;;;3.97;2.70;;;10.20;99.90;;;;;;5042146;28;20305;-49
2022/04/17 06:35:17;;;;;;;5.72;3.20;;;10.20;99.90;;;;;;5042017;28;20223;-52
2022/04/17 06:37:53;;;;;;;3.30;2.95;;;10.00;99.90;;;;;;5041822;28;20417;-53
2022/04/17 06:40:31;;;;;;;4.13;2.80;;;10.30;99.90;;;;;;5042266;28;20198;-52
2022/04/17 06:43:01;;;;;;;4.93;2.75;;;10.10;99.90;;;;;;5041782;28;20403;-52
2022/04/17 06:45:29;;;;;;;6.65;3.72;;;10.90;99.90;;;;;;5041838;28;20249;-55
2022/04/17 06:47:56;;;;;;;4.90;3.33;;;11.90;99.90;;;;;;5041951;28;20447;-53
2022/04/17 06:50:24;;;;;;;4.05;3.65;;;12.20;99.90;;;;;;5041796;28;20486;-51
2022/04/17 06:52:51;;;;;;;3.42;3.05;;;13.40;99.90;;;;;;5042099;28;20371;-53
2022/04/17 06:55:19;;;;;;;5.32;2.70;;;14.00;97.80;;;;;;5041909;28;20220;-51
2022/04/17 06:57:50;;;;;;;4.13;2.95;;;14.60;95.50;;;;;;5042500;28;20367;-51
2022/04/17 07:00:19;;;;;;;4.00;2.42;;;15.00;94.30;;;;;;5039844;28;20204;-51
2022/04/17 07:02:46;;;;;;;4.37;2.63;;;16.10;91.70;;;;;;5041678;28;20197;-53
2022/04/17 07:05:15;;;;;;;4.70;2.60;;;16.20;90.80;;;;;;5041327;28;20412;-52
2022/04/17 07:07:42;;;;;;;3.47;2.73;;;17.00;88.20;;;;;;5041799;28;20441;-53
2022/04/17 07:10:11;;;;;;;2.30;2.10;;;18.00;81.50;;;;;;5041402;28;20418;-50
2022/04/17 07:12:39;;;;;;;2.57;1.73;;;17.40;80.40;;;;;;5041199;28;20455;-50
2022/04/17 07:15:10;;;;;;;2.70;2.30;;;17.40;79.00;;;;;;5041152;28;20439;-50
2022/04/17 07:17:39;;;;;;;2.50;1.73;;;16.80;78.50;;;;;;5041576;28;20617;-51
2022/04/17 07:20:08;;;;;;;2.40;1.97;;;17.10;79.10;;;;;;5041713;28;20402;-49
2022/04/17 07:22:36;;;;;;;2.10;1.93;;;17.50;75.30;;;;;;5041134;28;20461;-52
2022/04/17 07:25:05;;;;;;;3.17;2.10;;;17.50;77.40;;;;;;5040770;28;20437;-54
2022/04/17 07:27:38;;;;;;;4.07;2.43;;;17.70;75.30;;;;;;5041150;28;20408;-50
2022/04/17 07:30:19;;;;;;;3.60;2.20;;;16.90;75.90;;;;;;5040428;28;20454;-50
2022/04/17 07:32:53;;;;;;;4.00;2.30;;;15.70;77.70;;;;;;5041584;28;20671;-50
2022/04/17 07:35:23;;;;;;;2.47;2.27;;;17.10;76.00;;;;;;5040579;28;20677;-51
2022/04/17 07:37:52;;;;;;;2.23;2.03;;;18.60;71.30;;;;;;5040387;28;20461;-54
2022/04/17 07:40:22;;;;;;;4.20;2.10;;;18.80;71.20;;;;;;5040716;28;20435;-50
2022/04/17 07:42:51;;;;;;;3.17;2.43;;;18.10;71.80;;;;;;5040769;28;20829;-49
2022/04/17 07:45:19;;;;;;;2.10;1.90;;;18.40;71.20;;;;;;5041187;28;20437;-49
2022/04/17 07:47:47;;;;;;;3.93;2.07;;;19.00;68.50;;;;;;5040716;28;20429;-51
2022/04/17 07:50:17;;;;;;;2.47;2.23;;;17.10;73.80;;;;;;5040391;28;20469;-50
2022/04/17 07:52:45;;;;;;;6.90;3.03;;;17.80;72.20;;;;;;5040749;28;20404;-51
2022/04/17 07:55:14;;;;;;;3.27;2.97;;;17.20;72.40;;;;;;5040539;28;20454;-53
2022/04/17 08:00:32;;;;;;;2.97;2.67;;;18.70;68.10;;;;;;5040532;28;20400;-51
2022/04/17 08:03:20;;;;;;;3.40;2.87;;;19.90;66.40;;;;;;5040320;28;20735;-50
2022/04/17 08:05:50;;;;;;;7.37;2.80;;;19.40;66.60;;;;;;5041124;28;20428;-52
2022/04/17 08:08:17;;;;;;;6.23;2.57;;;18.10;69.20;;;;;;5039660;28;20438;-54
2022/04/17 08:10:44;;;;;;;5.10;2.57;;;17.90;68.30;;;;;;5040496;28;20444;-51
2022/04/17 08:13:11;;;;;;;2.23;2.03;;;17.00;69.40;;;;;;5039748;28;20410;-56
2022/04/17 08:15:39;;;;;;;3.70;2.50;;;16.60;69.50;;;;;;5040744;28;20450;-50
2022/04/17 08:18:08;;;;;;;3.00;2.20;;;16.10;72.90;;;;;;5040242;28;20474;-53
2022/04/17 08:20:35;;;;;;;5.83;3.00;;;18.60;70.40;;;;;;5040356;28;20461;-53
2022/04/17 08:23:03;;;;;;;2.70;2.20;;;20.70;63.40;;;;;;5039993;28;20429;-53
2022/04/17 08:25:33;;;;;;;2.00;1.90;;;20.80;63.20;;;;;;5040101;28;20411;-56
2022/04/17 08:28:04;;;;;;;3.43;2.30;;;21.10;61.60;;;;;;5039934;28;20667;-54
2022/04/17 08:30:33;;;;;;;3.07;1.93;;;21.30;61.50;;;;;;5040598;28;20404;-55
2022/04/17 08:33:04;;;;;;;4.00;3.20;;;21.20;60.50;;;;;;5040471;28;20416;-55
2022/04/17 08:35:32;;;;;;;4.03;2.93;;;22.00;58.80;;;;;;5039623;28;20507;-50
2022/04/17 08:38:03;;;;;;;2.10;1.77;;;22.00;57.30;;;;;;5040077;28;20431;-51
2022/04/17 08:40:31;;;;;;;4.93;1.90;;;20.50;58.60;;;;;;5039783;28;20412;-52
2022/04/17 08:42:59;;;;;;;4.27;2.37;;;19.30;61.20;;;;;;5039996;28;20617;-50
2022/04/17 08:45:26;;;;;;;1.40;1.30;;;20.10;60.00;;;;;;5039902;28;20766;-53
2022/04/17 08:47:54;;;;;;;2.53;2.33;;;21.50;58.20;;;;;;5040139;28;20448;-52
2022/04/17 08:50:22;;;;;;;2.13;1.93;;;20.90;56.40;;;;;;5039442;28;20480;-48
2022/04/17 08:52:52;;;;;;;2.33;2.10;;;19.80;57.20;;;;;;5040077;28;20467;-55
2022/04/17 08:55:20;;;;;;;3.23;2.37;;;19.70;58.90;;;;;;5039942;28;20469;-51
2022/04/17 08:57:48;;;;;;;9.97;2.50;;;20.30;57.60;;;;;;5040545;28;20429;-53
2022/04/17 09:00:17;;;;;;;2.73;2.53;;;20.40;57.20;;;;;;5039582;28;20454;-50
2022/04/17 09:02:50;;;;;;;3.00;2.27;;;19.80;58.20;;;;;;5040033;28;20399;-53
2022/04/17 09:05:20;;;;;;;3.33;1.80;;;19.90;57.50;;;;;;5039361;28;20425;-54
2022/04/17 09:07:51;;;;;;;2.57;2.37;;;19.80;57.00;;;;;;5039540;28;20509;-54
2022/04/17 09:10:30;;;;;;;4.60;2.30;;;18.70;59.60;;;;;;5039325;28;20411;-50
2022/04/17 09:13:02;;;;;;;2.00;1.80;;;19.40;58.20;;;;;;5040277;28;20433;-53
2022/04/17 09:15:32;;;;;;;3.23;2.93;;;19.30;58.30;;;;;;5043034;28;20445;-50
2022/04/17 09:18:00;;;;;;;2.93;2.40;;;20.10;57.70;;;;;;5040085;28;20420;-50
2022/04/17 09:20:28;;;;;;;2.40;2.20;;;19.40;57.50;;;;;;5039701;28;20679;-49
2022/04/17 09:22:58;;;;;;;5.13;2.90;;;18.30;60.60;;;;;;5038806;28;20817;-50
2022/04/17 09:25:28;;;;;;;1.77;1.60;;;17.70;59.90;;;;;;5039689;28;20440;-50
2022/04/17 09:28:00;;;;;;;2.70;2.50;;;16.20;65.40;;;;;;5039158;28;20491;-52
2022/04/17 09:30:32;;;;;;;2.47;2.17;;;15.30;67.00;;;;;;5038950;28;20408;-48
2022/04/17 09:33:12;;;;;;;2.42;1.80;;;14.30;69.30;;;;;;5039280;28;20413;-48
2022/04/17 09:35:40;;;;;;;1.65;1.55;;;12.80;71.20;;;;;;5039712;28;20246;-51
2022/04/17 09:38:09;;;;;;;2.13;1.70;;;11.70;74.20;;;;;;5039165;28;20262;-53
2022/04/17 09:40:39;;;;;;;1.50;1.40;;;11.30;76.40;;;;;;5039227;28;20192;-50
2022/04/17 09:43:14;;;;;;;2.20;1.70;;;11.50;77.80;;;;;;5039272;28;20421;-51
2022/04/17 09:46:02;;;;;;;1.92;1.70;;;11.50;76.90;;;;;;5039279;28;20211;-47
2022/04/17 09:48:40;;;;;;;4.07;2.42;;;11.50;78.30;;;;;;5038242;28;20246;-52
2022/04/17 09:51:25;;;;;;;2.15;1.95;;;11.50;77.00;;;;;;5038461;28;20214;-49
2022/04/17 09:54:05;;;;;;;1.98;1.88;;;11.20;78.20;;;;;;5038262;28;20203;-53
2022/04/17 09:56:37;;;;;;;2.38;2.17;;;11.00;79.20;;;;;;5038975;28;20226;-51
2022/04/17 09:59:22;;;;;;;2.28;2.00;;;11.20;79.40;;;;;;5038994;28;20224;-52
2022/04/17 10:01:54;;;;;;;3.92;2.33;;;11.00;79.10;;;;;;5038796;28;20201;-52
2022/04/17 10:04:24;;;;;;;3.25;1.48;;;10.80;80.20;;;;;;5038139;28;20399;-50
2022/04/17 10:06:57;;;;;;;1.98;1.83;;;11.00;82.20;;;;;;5040347;28;20218;-49
2022/04/17 10:09:26;;;;;;;2.20;1.80;;;11.10;80.10;;;;;;5042421;28;20223;-49
2022/04/17 10:11:59;;;;;;;2.65;2.20;;;10.90;78.70;;;;;;5043020;28;20302;-49
2022/04/17 10:14:28;;;;;;;1.48;1.38;;;10.70;79.60;;;;;;5042117;28;20274;-50
2022/04/17 10:16:58;;;;;;;2.05;1.85;;;11.00;81.20;;;;;;5038920;28;20228;-51
2022/04/17 10:19:27;;;;;;;2.80;2.60;;;11.50;80.00;;;;;;5037674;28;20266;-51
2022/04/17 10:22:03;;;;;;;2.10;1.90;;;11.70;80.60;;;;;;5038185;28;20196;-51
2022/04/17 10:24:34;;;;;;;1.95;1.23;;;11.80;78.40;;;;;;5038475;28;20238;-52
2022/04/17 10:27:02;;;;;;;1.50;1.40;;;11.40;79.20;;;;;;5038928;28;20446;-49
2022/04/17 10:29:56;;;;;;;4.10;1.65;;;11.00;79.20;;;;;;5038303;28;20565;-52
2022/04/17 10:32:32;;;;;;;2.22;1.75;;;10.70;80.50;;;;;;5038556;28;20371;-52
2022/04/17 10:35:32;;;;;;;1.60;1.50;;;11.00;81.60;;;;;;5040570;28;20453;-51
2022/04/17 10:38:32;;;;;;;2.10;1.75;;;11.10;79.50;;;;;;5041993;28;20450;-52
2022/04/17 10:41:04;;;;;;;1.60;1.45;;;11.10;80.30;;;;;;5041845;28;20197;-53
2022/04/17 10:43:33;;;;;;;1.80;1.58;;;11.20;80.70;;;;;;5042357;28;20309;-52
2022/04/17 10:46:08;;;;;;;1.92;1.77;;;11.30;79.20;;;;;;5041438;28;20271;-52
2022/04/17 10:48:52;;;;;;;2.28;1.45;;;11.50;80.10;;;;;;5041661;28;20461;-52
2022/04/17 10:51:30;;;;;;;1.85;1.70;;;11.40;77.70;;;;;;5041738;28;20207;-50
2022/04/17 10:54:09;;;;;;;3.47;1.98;;;11.20;78.80;;;;;;5042200;28;20203;-52
2022/04/17 10:56:39;;;;;;;1.58;1.48;;;11.10;79.20;;;;;;5041455;28;20258;-48
2022/04/17 10:59:20;;;;;;;1.70;1.60;;;11.40;78.30;;;;;;5041606;28;20231;-49
2022/04/17 11:02:13;;;;;;;1.73;1.55;;;11.40;79.40;;;;;;5041315;28;20197;-53
2022/04/17 11:04:53;;;;;;;1.95;1.80;;;11.40;77.50;;;;;;5038239;28;20415;-52
2022/04/17 11:07:28;;;;;;;2.22;1.90;;;11.40;77.10;;;;;;5040810;28;20227;-48
2022/04/17 11:10:20;;;;;;;2.38;2.17;;;11.20;76.90;;;;;;5042058;28;20212;-50
2022/04/17 11:12:52;;;;;;;1.85;1.73;;;11.20;79.40;;;;;;5040961;28;20408;-50
2022/04/17 11:15:19;;;;;;;2.42;2.22;;;11.20;78.50;;;;;;5041780;28;20234;-50
2022/04/17 11:17:49;;;;;;;1.90;1.70;;;11.30;78.80;;;;;;5041072;28;20244;-50
2022/04/17 11:20:17;;;;;;;2.28;1.33;;;11.30;80.00;;;;;;5041351;28;20207;-49
2022/04/17 11:22:44;;;;;;;2.22;2.03;;;11.50;79.50;;;;;;5040778;28;20246;-54
2022/04/17 11:25:12;;;;;;;2.03;1.80;;;11.70;80.10;;;;;;5041655;28;20199;-55
2022/04/17 11:27:51;;;;;;;4.68;2.10;;;11.90;78.50;;;;;;5041231;28;20203;-53
2022/04/17 11:30:38;;;;;;;1.90;1.70;;;11.80;79.00;;;;;;5040859;28;20195;-53
2022/04/17 11:33:07;;;;;;;1.80;1.70;;;11.70;80.10;;;;;;5040183;28;20283;-54
2022/04/17 11:35:35;;;;;;;1.65;1.48;;;11.90;79.60;;;;;;5040928;28;20261;-50
2022/04/17 11:38:05;;;;;;;2.63;1.73;;;12.00;79.40;;;;;;5040739;28;20223;-51
2022/04/17 11:40:37;;;;;;;2.35;1.70;;;11.60;77.90;;;;;;5040921;28;20267;-50
2022/04/17 11:43:09;;;;;;;3.15;1.60;;;11.60;77.40;;;;;;5041049;28;20267;-50
2022/04/17 11:45:37;;;;;;;1.60;1.50;;;11.70;79.50;;;;;;5039817;28;20200;-49
2022/04/17 11:48:08;;;;;;;2.63;2.38;;;12.00;79.70;;;;;;5040764;28;20223;-51
2022/04/17 11:50:36;;;;;;;1.50;1.40;;;12.20;79.10;;;;;;5040762;28;20521;-54
2022/04/17 11:53:11;;;;;;;1.75;1.63;;;12.50;78.40;;;;;;5040596;28;20594;-50
2022/04/17 11:55:40;;;;;;;2.10;1.50;;;12.50;78.30;;;;;;5040260;28;20222;-50
2022/04/17 11:58:24;;;;;;;3.42;1.45;;;12.40;77.90;;;;;;5040607;28;20617;-51
2022/04/17 12:00:59;;;;;;;2.05;1.95;;;12.60;77.80;;;;;;5041539;28;20200;-53
2022/04/17 12:03:45;;;;;;;3.70;2.15;;;12.40;76.20;;;;;;5046093;28;20300;-51
2022/04/17 12:06:14;;;;;;;1.38;1.27;;;12.30;78.00;;;;;;5040875;28;20208;-50
2022/04/17 12:08:42;;;;;;;1.30;1.20;;;12.40;78.00;;;;;;5039849;28;20227;-49
2022/04/17 12:11:09;;;;;;;1.60;1.48;;;12.60;77.70;;;;;;5039814;28;20438;-50
2022/04/17 12:13:37;;;;;;;1.85;1.75;;;12.40;77.60;;;;;;5040027;28;20222;-53
2022/04/17 12:16:06;;;;;;;7.68;2.53;;;12.30;77.40;;;;;;5039894;28;20251;-50
2022/04/17 12:18:34;;;;;;;1.45;1.25;;;12.40;78.30;;;;;;5039921;28;20220;-52
2022/04/17 12:21:03;;;;;;;1.40;1.30;;;12.40;78.70;;;;;;5039851;28;20511;-52
2022/04/17 12:23:34;;;;;;;1.95;1.85;;;12.30;75.30;;;;;;5039855;28;20376;-50
2022/04/17 12:26:07;;;;;;;1.50;1.35;;;12.40;77.10;;;;;;5039554;28;20250;-53
2022/04/17 12:28:40;;;;;;;2.47;1.90;;;12.60;77.10;;;;;;5039951;28;20342;-52
2022/04/17 12:31:08;;;;;;;2.75;2.22;;;12.60;77.00;;;;;;5039193;28;20253;-48
2022/04/17 12:33:36;;;;;;;3.95;2.45;;;12.50;77.50;;;;;;5039670;28;20605;-51
2022/04/17 12:36:21;;;;;;;1.33;1.23;;;12.40;77.80;;;;;;5039776;28;20262;-52
2022/04/17 12:38:58;;;;;;;1.88;1.42;;;12.30;77.30;;;;;;5039591;28;20538;-50
2022/04/17 12:41:26;;;;;;;1.20;1.15;;;12.10;76.70;;;;;;5039635;28;20202;-52
2022/04/17 12:43:54;;;;;;;2.40;1.58;;;12.10;77.30;;;;;;5039133;28;20266;-51
2022/04/17 12:46:29;;;;;;;0.95;0.90;;;12.10;77.30;;;;;;5038906;28;20247;-53
2022/04/17 12:49:19;;;;;;;5.90;1.77;;;12.10;76.60;;;;;;5039088;28;20588;-53
2022/04/17 12:51:54;;;;;;;1.58;1.48;;;11.90;75.80;;;;;;5039245;28;20222;-52
2022/04/17 12:54:22;;;;;;;1.85;1.45;;;12.00;77.40;;;;;;5039566;28;20281;-52
2022/04/17 12:57:03;;;;;;;1.95;1.52;;;12.20;78.60;;;;;;5039489;28;20262;-50
2022/04/17 12:59:49;;;;;;;1.35;1.20;;;12.40;77.90;;;;;;5038910;28;20430;-49
2022/04/17 13:02:26;;;;;;;2.00;1.30;;;11.90;74.40;;;;;;5039566;28;20199;-49
2022/04/17 13:04:55;;;;;;;1.27;1.17;;;11.80;76.10;;;;;;5039107;28;20440;-50
2022/04/17 13:07:22;;;;;;;1.52;1.15;;;11.90;72.40;;;;;;5039246;28;20219;-52
2022/04/17 13:09:58;;;;;;;2.38;1.60;;;11.90;73.00;;;;;;5038986;28;20227;-52
2022/04/17 13:12:45;;;;;;;1.70;1.48;;;11.90;73.10;;;;;;5039452;28;20203;-49
2022/04/17 13:15:16;;;;;;;2.13;1.27;;;12.00;71.80;;;;;;5038623;28;20283;-50
2022/04/17 13:17:47;;;;;;;2.28;1.10;;;12.00;72.20;;;;;;5038827;28;20227;-52
2022/04/17 13:20:16;;;;;;;2.75;1.35;;;12.00;72.40;;;;;;5039216;28;20310;-53
2022/04/17 13:22:47;;;;;;;1.98;1.33;;;11.90;75.00;;;;;;5039045;28;20235;-52